Time;durP1;ratioP1;P1;durP2;ratioP2;P2;SDS_P1;SDS_P2;PMS_P1;PMS_P2;Temp;Humidity;BMP_temperature;BMP_pressure;BME280_temperature;BME280_humidity;BME280_pressure;Samples;Min_cycle;Max_cycle;Signal;HPM_P1;HPM_P2
2023/01/11 00:01:06;;;;;;;6.88;2.70;;;9.80;99.90;;;;;;5026466;28;20390;-73
2023/01/11 00:03:32;;;;;;;6.53;2.97;;;9.80;99.90;;;;;;5027918;28;20124;-72
2023/01/11 00:05:57;;;;;;;3.80;2.85;;;9.80;99.90;;;;;;5026459;28;20104;-72
2023/01/11 00:08:25;;;;;;;5.05;2.85;;;9.90;99.90;;;;;;5018621;28;20105;-73
2023/01/11 00:10:51;;;;;;;5.90;2.47;;;9.90;99.90;;;;;;5016325;28;20033;-73
2023/01/11 00:13:16;;;;;;;5.03;2.58;;;9.90;99.90;;;;;;5024031;28;20054;-72
2023/01/11 00:15:42;;;;;;;7.22;2.58;;;9.90;99.90;;;;;;5020695;28;20049;-73
2023/01/11 00:18:08;;;;;;;3.95;2.30;;;9.90;99.90;;;;;;5022243;28;20041;-73
2023/01/11 00:20:37;;;;;;;5.40;2.00;;;10.00;99.90;;;;;;5025467;28;20537;-73
2023/01/11 00:23:02;;;;;;;5.50;2.63;;;10.00;99.90;;;;;;5031921;28;20119;-72
2023/01/11 00:25:28;;;;;;;5.25;2.88;;;10.00;99.90;;;;;;5023584;28;20025;-73
2023/01/11 00:27:53;;;;;;;4.85;2.47;;;10.00;99.90;;;;;;5031357;28;20032;-72
2023/01/11 00:30:19;;;;;;;5.93;2.55;;;10.00;99.90;;;;;;5030507;28;20057;-72
2023/01/11 00:32:45;;;;;;;5.80;2.03;;;10.00;99.90;;;;;;5025945;28;20079;-73
2023/01/11 00:35:11;;;;;;;5.10;2.58;;;10.00;99.90;;;;;;5020805;28;20033;-73
2023/01/11 00:37:37;;;;;;;4.35;2.20;;;10.00;99.90;;;;;;5020621;28;20362;-72
2023/01/11 00:40:03;;;;;;;6.55;2.45;;;10.00;99.90;;;;;;5030703;28;20481;-72
2023/01/11 00:47:59;;;;;;;3.15;1.70;;;10.10;99.90;;;;;;5026877;28;20525;-73
2023/01/11 00:50:26;;;;;;;6.05;2.47;;;10.10;99.90;;;;;;5022550;28;20038;-73
2023/01/11 00:52:52;;;;;;;5.15;2.10;;;10.10;99.90;;;;;;5021541;28;20033;-73
2023/01/11 00:55:18;;;;;;;3.35;1.50;;;10.10;99.90;;;;;;5013388;28;20049;-72
2023/01/11 00:57:43;;;;;;;6.95;1.83;;;10.10;99.90;;;;;;5029017;28;20033;-72
2023/01/11 01:00:09;;;;;;;6.13;1.42;;;10.10;99.90;;;;;;5029217;28;20546;-73
2023/01/11 01:02:35;;;;;;;6.70;1.85;;;10.20;99.90;;;;;;5026501;28;20029;-72
2023/01/11 01:05:00;;;;;;;5.07;1.80;;;10.20;99.90;;;;;;5026160;28;20030;-73
2023/01/11 01:07:26;;;;;;;4.47;1.52;;;10.20;99.90;;;;;;5028108;28;20021;-73
2023/01/11 01:09:51;;;;;;;3.75;1.50;;;10.20;99.90;;;;;;5027838;28;20474;-73
2023/01/11 01:14:24;;;;;;;5.78;1.27;;;10.20;99.90;;;;;;5024648;28;20405;-72
2023/01/11 01:15:03;;;;;;;3.42;1.30;;;10.10;99.90;;;;;;5023167;28;20029;-72
2023/01/11 01:17:28;;;;;;;2.70;1.23;;;10.20;99.90;;;;;;5025232;28;20481;-73
2023/01/11 01:19:54;;;;;;;5.10;1.70;;;10.20;99.90;;;;;;5024030;28;20029;-72
2023/01/11 01:22:19;;;;;;;4.15;1.30;;;10.10;99.90;;;;;;5027229;28;20104;-74
2023/01/11 01:24:45;;;;;;;2.92;1.40;;;10.20;99.90;;;;;;5025488;28;20033;-73
2023/01/11 01:27:15;;;;;;;2.53;1.27;;;10.10;99.90;;;;;;5029954;28;20044;-73
2023/01/11 01:29:41;;;;;;;4.88;1.40;;;10.20;99.90;;;;;;5018344;28;20037;-72
2023/01/11 01:32:06;;;;;;;2.78;1.48;;;10.20;99.90;;;;;;5022170;28;20095;-73
2023/01/11 01:34:36;;;;;;;3.92;1.60;;;10.20;99.90;;;;;;5026999;28;20037;-73
2023/01/11 01:37:05;;;;;;;2.90;1.38;;;10.20;99.90;;;;;;5026910;28;20052;-73
2023/01/11 01:39:31;;;;;;;2.67;1.55;;;10.20;99.90;;;;;;5025288;28;20025;-73
2023/01/11 01:41:57;;;;;;;3.63;1.60;;;10.20;99.90;;;;;;5019272;28;20029;-73
2023/01/11 01:45:00;;;;;;;3.28;1.40;;;10.20;99.90;;;;;;5024990;28;20022;-73
2023/01/11 01:47:54;;;;;;;2.97;1.50;;;10.20;99.90;;;;;;5025491;28;20031;-72
2023/01/11 01:50:47;;;;;;;6.00;1.67;;;10.20;99.90;;;;;;5021852;28;20038;-74
2023/01/11 01:53:25;;;;;;;3.78;1.35;;;10.20;99.90;;;;;;5022180;28;20140;-72
2023/01/11 01:55:54;;;;;;;2.88;1.38;;;10.20;99.90;;;;;;5025554;28;20041;-73
2023/01/11 01:58:24;;;;;;;3.95;1.40;;;10.20;99.90;;;;;;5029307;28;20022;-72
2023/01/11 02:00:50;;;;;;;3.30;1.25;;;10.30;99.90;;;;;;5018928;28;20040;-72
2023/01/11 02:03:19;;;;;;;6.07;1.60;;;10.30;99.90;;;;;;5018858;28;20456;-72
2023/01/11 02:05:45;;;;;;;2.08;1.38;;;10.30;99.90;;;;;;5026482;28;20132;-73
2023/01/11 02:08:19;;;;;;;2.47;1.15;;;10.30;99.90;;;;;;5018118;28;20026;-72
2023/01/11 02:10:45;;;;;;;2.90;1.25;;;10.30;99.90;;;;;;5028305;28;20437;-72
2023/01/11 02:13:13;;;;;;;1.70;1.30;;;10.30;99.90;;;;;;5025574;28;20029;-73
2023/01/11 02:15:38;;;;;;;2.95;1.45;;;10.40;99.90;;;;;;5020984;28;20085;-73
2023/01/11 02:18:08;;;;;;;2.42;1.17;;;10.30;99.90;;;;;;5027376;28;20385;-72
2023/01/11 02:20:53;;;;;;;1.90;1.30;;;10.40;99.90;;;;;;5016962;28;20105;-72
2023/01/11 02:23:40;;;;;;;2.33;1.40;;;10.40;99.90;;;;;;5029658;28;20025;-72
2023/01/11 02:26:11;;;;;;;2.58;1.20;;;10.40;99.90;;;;;;5026173;28;20504;-73
2023/01/11 02:28:50;;;;;;;3.08;1.55;;;10.50;99.90;;;;;;5029041;28;20044;-73
2023/01/11 02:31:47;;;;;;;2.80;1.60;;;10.50;99.90;;;;;;5025275;28;20025;-72
2023/01/11 02:34:43;;;;;;;2.17;1.30;;;10.50;99.90;;;;;;5023983;28;20040;-72
2023/01/11 02:37:27;;;;;;;4.38;1.80;;;10.50;99.90;;;;;;5024428;28;20317;-72
2023/01/11 02:40:06;;;;;;;3.40;1.20;;;10.50;99.90;;;;;;5016430;28;20485;-72
2023/01/11 02:45:58;;;;;;;1.90;1.25;;;10.60;99.90;;;;;;5020720;28;20091;-73
2023/01/11 02:48:47;;;;;;;4.10;1.48;;;10.60;99.90;;;;;;5022348;28;20026;-72
2023/01/11 02:51:26;;;;;;;3.13;1.20;;;10.60;99.90;;;;;;5024714;28;20033;-73
2023/01/11 02:54:01;;;;;;;3.63;1.17;;;10.70;99.90;;;;;;5019434;28;20080;-72
2023/01/11 02:56:30;;;;;;;1.88;1.13;;;10.70;99.90;;;;;;5022573;28;20045;-72
2023/01/11 02:58:57;;;;;;;2.35;1.30;;;10.70;99.90;;;;;;5029664;28;20025;-72
2023/01/11 03:01:24;;;;;;;3.22;1.30;;;10.80;99.90;;;;;;5018611;28;20084;-72
2023/01/11 03:03:51;;;;;;;1.50;1.00;;;10.80;99.90;;;;;;5017577;28;20022;-72
2023/01/11 03:06:24;;;;;;;2.13;1.13;;;10.80;99.90;;;;;;5026410;28;20025;-72
2023/01/11 03:09:25;;;;;;;2.00;1.10;;;10.80;99.90;;;;;;5028104;28;20026;-72
2023/01/11 03:15:05;;;;;;;2.92;1.20;;;10.90;99.90;;;;;;5022287;28;20508;-72
2023/01/11 03:17:43;;;;;;;2.78;1.73;;;10.90;99.90;;;;;;5025474;28;20036;-73
2023/01/11 03:20:18;;;;;;;2.35;1.30;;;10.90;99.90;;;;;;5020674;28;20033;-74
2023/01/11 03:23:06;;;;;;;2.55;1.10;;;11.00;99.90;;;;;;5022851;28;20498;-71
2023/01/11 03:25:48;;;;;;;1.50;0.90;;;11.00;99.90;;;;;;5023259;28;20025;-73
2023/01/11 03:28:31;;;;;;;1.83;0.90;;;11.00;99.90;;;;;;5022083;28;20101;-72
2023/01/11 03:31:04;;;;;;;3.17;1.00;;;11.00;99.90;;;;;;5019065;28;20063;-72
2023/01/11 03:33:33;;;;;;;2.90;1.05;;;11.00;99.90;;;;;;5022975;28;20183;-72
2023/01/11 03:36:30;;;;;;;3.05;1.00;;;11.00;99.90;;;;;;5016226;28;20123;-72
2023/01/11 03:39:12;;;;;;;4.32;0.95;;;11.00;99.90;;;;;;4998809;28;20424;-72
2023/01/11 03:41:41;;;;;;;5.30;1.00;;;11.10;99.90;;;;;;5023322;28;20029;-73
2023/01/11 03:44:11;;;;;;;2.22;1.25;;;11.10;99.90;;;;;;5026858;28;20029;-72
2023/01/11 03:46:56;;;;;;;4.15;1.20;;;11.10;99.90;;;;;;5029062;28;20030;-73
2023/01/11 03:49:25;;;;;;;2.25;0.82;;;11.10;99.90;;;;;;5023418;28;20049;-73
2023/01/11 03:51:53;;;;;;;1.75;0.82;;;11.10;99.90;;;;;;5022331;28;20018;-72
2023/01/11 03:54:22;;;;;;;2.28;0.80;;;11.20;99.90;;;;;;5022621;28;20026;-72
2023/01/11 03:57:22;;;;;;;1.98;0.95;;;11.20;99.90;;;;;;5025270;28;20049;-73
2023/01/11 03:59:48;;;;;;;3.65;0.85;;;11.20;99.90;;;;;;5021446;28;20034;-73
2023/01/11 04:02:20;;;;;;;2.47;0.70;;;11.20;99.90;;;;;;5030837;28;20036;-72
2023/01/11 04:04:45;;;;;;;1.45;0.80;;;11.20;99.90;;;;;;5029219;28;20497;-72
2023/01/11 04:07:11;;;;;;;3.38;1.00;;;11.30;99.90;;;;;;5023599;28;20060;-72
2023/01/11 04:09:37;;;;;;;1.80;1.20;;;11.20;99.90;;;;;;5023564;28;20032;-72
2023/01/11 04:12:02;;;;;;;2.50;1.33;;;11.30;99.90;;;;;;5025873;28;20029;-72
2023/01/11 04:14:28;;;;;;;3.80;1.70;;;11.30;99.90;;;;;;5027263;28;20025;-72
2023/01/11 04:16:54;;;;;;;2.17;1.40;;;11.30;99.90;;;;;;5027848;28;20394;-72
2023/01/11 04:19:19;;;;;;;5.40;1.70;;;11.40;99.90;;;;;;5010486;28;20121;-72
2023/01/11 04:21:45;;;;;;;2.97;1.50;;;11.40;99.90;;;;;;5031704;28;20044;-72
2023/01/11 04:24:12;;;;;;;3.78;1.60;;;11.40;99.90;;;;;;5024838;28;20554;-72
2023/01/11 04:26:38;;;;;;;3.00;1.95;;;11.40;99.90;;;;;;5023509;28;20511;-73
2023/01/11 04:29:03;;;;;;;3.58;1.20;;;11.40;99.90;;;;;;5030837;28;20030;-73
2023/01/11 04:31:29;;;;;;;2.92;1.35;;;11.40;99.90;;;;;;5028818;28;20060;-72
2023/01/11 04:33:54;;;;;;;3.05;1.83;;;11.40;99.90;;;;;;5021041;28;20040;-73
2023/01/11 04:36:20;;;;;;;2.85;1.90;;;11.40;99.90;;;;;;5020754;28;20029;-72
2023/01/11 04:38:46;;;;;;;2.83;1.80;;;11.40;99.90;;;;;;5029532;28;20025;-72
2023/01/11 04:43:55;;;;;;;2.90;1.23;;;11.50;99.90;;;;;;5018589;28;20041;-73
2023/01/11 04:46:24;;;;;;;1.70;1.15;;;11.40;99.90;;;;;;5023874;28;20022;-72
2023/01/11 04:48:50;;;;;;;1.20;0.80;;;11.40;99.90;;;;;;5031059;28;20040;-73
2023/01/11 04:51:15;;;;;;;1.33;0.75;;;11.40;99.90;;;;;;5024607;28;20030;-73
2023/01/11 04:53:41;;;;;;;2.58;1.23;;;11.50;99.90;;;;;;5029069;28;20036;-72
2023/01/11 04:56:07;;;;;;;1.77;0.90;;;11.40;99.90;;;;;;5023680;28;20124;-72
2023/01/11 04:58:34;;;;;;;2.92;0.98;;;11.40;99.90;;;;;;5024678;28;20034;-73
2023/01/11 05:01:06;;;;;;;2.22;1.08;;;11.40;99.90;;;;;;5024922;28;20493;-72
2023/01/11 05:03:31;;;;;;;3.23;1.20;;;11.40;99.90;;;;;;5027435;28;20401;-73
2023/01/11 05:05:58;;;;;;;2.63;2.17;;;11.50;99.90;;;;;;5028473;28;20039;-73
2023/01/11 05:08:25;;;;;;;3.70;2.42;;;11.50;99.90;;;;;;5020530;28;20025;-72
2023/01/11 05:11:03;;;;;;;3.15;2.30;;;11.50;99.90;;;;;;5029005;28;20037;-73
2023/01/11 05:13:41;;;;;;;3.15;2.17;;;11.50;99.90;;;;;;5020555;28;20053;-73
2023/01/11 05:16:16;;;;;;;5.07;3.10;;;11.50;99.90;;;;;;5028119;28;20542;-72
2023/01/11 05:18:44;;;;;;;5.07;3.17;;;11.50;99.90;;;;;;5025481;28;20473;-73
2023/01/11 05:21:14;;;;;;;3.53;2.60;;;11.50;99.90;;;;;;5011617;28;20432;-73
2023/01/11 05:23:40;;;;;;;5.15;2.50;;;11.50;99.90;;;;;;5025450;28;20576;-73
2023/01/11 05:26:09;;;;;;;6.32;3.22;;;11.50;99.90;;;;;;5028313;28;20037;-73
2023/01/11 05:28:34;;;;;;;5.28;2.75;;;11.50;99.90;;;;;;5026028;28;20045;-73
2023/01/11 05:31:01;;;;;;;4.65;3.72;;;11.60;99.90;;;;;;5027476;28;20382;-73
2023/01/11 05:33:27;;;;;;;5.50;4.38;;;11.60;99.90;;;;;;5024081;28;20032;-73
2023/01/11 05:36:06;;;;;;;5.15;4.05;;;11.50;99.90;;;;;;5021185;28;20046;-73
2023/01/11 05:38:33;;;;;;;7.38;5.13;;;11.60;99.90;;;;;;5029425;28;20029;-73
2023/01/11 05:41:00;;;;;;;7.60;5.35;;;11.60;99.90;;;;;;5026929;28;20132;-73
2023/01/11 05:43:27;;;;;;;9.77;5.25;;;11.60;99.90;;;;;;5022846;28;20068;-72
2023/01/11 05:45:53;;;;;;;8.48;5.38;;;11.60;99.90;;;;;;5023811;28;20041;-73
2023/01/11 05:48:19;;;;;;;7.15;5.15;;;11.60;99.90;;;;;;5027954;28;20014;-73
2023/01/11 05:50:54;;;;;;;12.57;5.55;;;11.60;99.90;;;;;;5028111;28;20425;-73
2023/01/11 05:53:23;;;;;;;13.32;5.20;;;11.50;99.90;;;;;;5025917;28;20033;-72
2023/01/11 05:55:56;;;;;;;9.43;4.75;;;11.60;99.90;;;;;;5027188;28;20401;-73
2023/01/11 05:58:24;;;;;;;10.55;4.90;;;11.60;99.90;;;;;;5023906;28;20366;-73
2023/01/11 06:00:51;;;;;;;10.18;4.70;;;11.50;99.90;;;;;;5026969;28;20021;-73
2023/01/11 06:03:17;;;;;;;11.25;4.63;;;11.50;99.90;;;;;;5019147;28;20026;-73
2023/01/11 06:05:44;;;;;;;18.00;5.10;;;11.40;99.90;;;;;;5021599;28;20026;-74
2023/01/11 06:08:11;;;;;;;11.20;3.47;;;11.40;99.90;;;;;;5015240;28;20132;-74
2023/01/11 06:10:50;;;;;;;14.55;3.38;;;11.40;99.90;;;;;;5014090;28;20117;-74
2023/01/11 06:13:26;;;;;;;16.80;2.42;;;11.40;99.90;;;;;;5003230;28;20025;-74
2023/01/11 06:16:03;;;;;;;11.27;2.20;;;11.40;99.90;;;;;;5008945;28;20038;-74
2023/01/11 06:18:33;;;;;;;10.35;1.75;;;11.30;99.90;;;;;;5014869;28;20017;-74
2023/01/11 06:21:05;;;;;;;13.05;1.90;;;11.30;99.90;;;;;;5013007;28;20439;-74
2023/01/11 06:23:32;;;;;;;;;;;11.30;99.90;;;;;;5016274;28;20124;-74
2023/01/11 06:26:06;;;;;;;14.00;1.60;;;11.20;99.90;;;;;;5024111;28;20079;-73
2023/01/11 06:28:32;;;;;;;16.00;1.60;;;11.10;99.90;;;;;;5025746;28;20021;-74
2023/01/11 06:31:08;;;;;;;14.30;1.52;;;11.10;99.90;;;;;;5026466;28;20388;-75
2023/01/11 06:33:47;;;;;;;13.80;1.42;;;11.10;99.90;;;;;;5005140;28;20089;-75
2023/01/11 06:36:13;;;;;;;14.98;1.27;;;11.00;99.90;;;;;;5029211;28;20038;-74
2023/01/11 06:38:39;;;;;;;17.80;1.38;;;10.90;99.90;;;;;;5024646;28;20033;-74
2023/01/11 06:41:07;;;;;;;10.40;1.08;;;10.90;99.90;;;;;;5029548;28;20076;-74
2023/01/11 06:43:33;;;;;;;16.75;1.55;;;10.80;99.90;;;;;;5024897;28;20030;-74
2023/01/11 06:45:59;;;;;;;13.57;1.10;;;10.80;99.90;;;;;;5025435;28;20041;-74
2023/01/11 06:48:25;;;;;;;17.30;1.20;;;10.70;99.90;;;;;;5029475;28;20034;-74
2023/01/11 06:50:53;;;;;;;10.85;0.65;;;10.70;99.90;;;;;;5022757;28;20748;-74
2023/01/11 06:53:18;;;;;;;14.52;1.55;;;10.60;99.90;;;;;;5014319;28;20370;-74
2023/01/11 06:55:47;;;;;;;16.95;1.17;;;10.60;99.90;;;;;;5021961;28;20045;-73
2023/01/11 06:58:13;;;;;;;17.45;1.30;;;10.60;99.90;;;;;;5020094;28;20029;-74
2023/01/11 07:00:39;;;;;;;19.85;1.23;;;10.50;99.90;;;;;;4996995;28;20540;-74
2023/01/11 07:03:05;;;;;;;13.25;1.00;;;10.50;99.90;;;;;;5032264;28;20025;-74
2023/01/11 07:05:32;;;;;;;15.95;1.25;;;10.40;99.90;;;;;;5029553;28;20037;-73
2023/01/11 07:07:57;;;;;;;19.20;1.98;;;10.40;99.90;;;;;;5028470;28;20059;-74
2023/01/11 07:10:23;;;;;;;13.48;1.15;;;10.40;99.90;;;;;;5026871;28;20112;-75
2023/01/11 07:12:48;;;;;;;12.52;0.90;;;10.40;99.90;;;;;;5027886;28;20030;-76
2023/01/11 07:15:14;;;;;;;11.70;1.58;;;10.30;99.90;;;;;;5022463;28;20432;-74
2023/01/11 07:17:40;;;;;;;15.85;1.17;;;10.30;99.90;;;;;;5013731;28;20037;-73
2023/01/11 07:20:06;;;;;;;13.98;0.98;;;10.20;99.90;;;;;;5027131;28;20113;-73
2023/01/11 07:22:35;;;;;;;15.55;1.13;;;10.20;99.90;;;;;;5017084;28;20444;-72
2023/01/11 07:25:02;;;;;;;11.93;0.90;;;10.20;99.90;;;;;;5027467;28;20028;-73
2023/01/11 07:27:27;;;;;;;13.95;1.08;;;10.20;99.90;;;;;;5018083;28;20036;-72
2023/01/11 07:29:53;;;;;;;16.27;1.45;;;10.10;99.90;;;;;;5023644;28;20029;-72
2023/01/11 07:32:19;;;;;;;14.65;1.58;;;10.10;99.90;;;;;;5027746;28;20733;-72
2023/01/11 07:34:45;;;;;;;11.88;1.02;;;10.10;99.90;;;;;;5029499;28;20026;-73
2023/01/11 07:37:12;;;;;;;13.48;1.60;;;10.10;99.90;;;;;;5034593;28;20093;-72
2023/01/11 07:39:37;;;;;;;12.27;0.70;;;10.10;99.90;;;;;;5029768;28;20428;-72
2023/01/11 07:44:47;;;;;;;12.80;0.90;;;10.00;99.90;;;;;;5015038;28;20052;-72
2023/01/11 07:47:13;;;;;;;12.38;0.95;;;10.00;99.90;;;;;;5033445;28;20021;-73
2023/01/11 07:49:38;;;;;;;15.50;1.35;;;9.90;99.90;;;;;;5027996;28;20132;-73
2023/01/11 07:52:04;;;;;;;23.85;1.33;;;9.90;99.90;;;;;;5033181;28;20030;-73
2023/01/11 07:54:29;;;;;;;13.95;1.20;;;9.90;99.90;;;;;;5033450;28;20033;-74
2023/01/11 07:56:55;;;;;;;10.32;1.33;;;9.90;99.90;;;;;;5027951;28;20049;-73
2023/01/11 07:59:21;;;;;;;20.77;1.60;;;9.90;99.90;;;;;;5028427;28;20041;-74
2023/01/11 08:01:47;;;;;;;10.98;1.15;;;9.90;99.90;;;;;;5018925;28;20037;-73
2023/01/11 08:04:13;;;;;;;18.05;0.85;;;9.90;99.90;;;;;;5031089;28;20030;-73
2023/01/11 08:06:39;;;;;;;20.05;1.27;;;9.90;99.90;;;;;;5033573;28;20025;-73
2023/01/11 08:09:05;;;;;;;23.45;1.00;;;9.90;99.90;;;;;;5026773;28;20030;-73
2023/01/11 08:16:59;;;;;;;15.25;1.10;;;9.70;99.90;;;;;;5020705;28;20075;-72
2023/01/11 08:19:25;;;;;;;14.10;1.10;;;9.70;99.90;;;;;;5024738;28;20441;-73
2023/01/11 08:21:50;;;;;;;13.10;0.77;;;9.70;99.90;;;;;;5033159;28;20036;-73
2023/01/11 08:24:16;;;;;;;15.45;1.55;;;9.60;99.90;;;;;;5033429;28;20024;-72
2023/01/11 08:26:41;;;;;;;16.27;1.30;;;9.60;99.90;;;;;;5018155;28;20030;-73
2023/01/11 08:29:07;;;;;;;19.42;1.50;;;9.50;99.90;;;;;;5029528;28;20026;-72
2023/01/11 08:31:33;;;;;;;12.60;1.30;;;9.50;99.90;;;;;;5024292;28;20043;-73
2023/01/11 08:33:58;;;;;;;15.48;1.45;;;9.50;99.90;;;;;;5031327;28;20028;-73
2023/01/11 08:36:26;;;;;;;14.82;1.58;;;9.50;99.90;;;;;;5029415;28;20095;-73
2023/01/11 08:38:58;;;;;;;16.55;1.23;;;9.40;99.90;;;;;;5025338;28;20028;-72
2023/01/11 08:41:24;;;;;;;20.23;1.90;;;9.40;99.90;;;;;;5029610;28;20064;-73
2023/01/11 08:43:50;;;;;;;8.55;0.90;;;9.40;99.90;;;;;;5023185;28;20101;-72
2023/01/11 08:46:17;;;;;;;15.52;1.02;;;9.40;99.90;;;;;;5033350;28;20025;-72
2023/01/11 08:48:43;;;;;;;13.32;1.10;;;9.30;99.90;;;;;;5026820;28;20124;-72
2023/01/11 08:51:09;;;;;;;13.25;1.00;;;9.30;99.90;;;;;;5032945;28;20032;-72
2023/01/11 08:53:35;;;;;;;20.77;1.00;;;9.30;99.90;;;;;;5031010;28;20033;-73
2023/01/11 08:56:01;;;;;;;14.68;1.27;;;9.30;99.90;;;;;;5024718;28;20026;-74
2023/01/11 08:58:27;;;;;;;13.68;0.80;;;9.20;99.90;;;;;;5021782;28;20040;-74
2023/01/11 09:00:52;;;;;;;16.83;0.98;;;9.20;99.90;;;;;;5014026;28;20026;-73
2023/01/11 09:03:19;;;;;;;14.15;0.77;;;9.20;99.90;;;;;;5025345;28;20025;-72
2023/01/11 09:05:45;;;;;;;19.42;1.40;;;9.10;99.90;;;;;;5021354;28;20042;-72
2023/01/11 09:08:10;;;;;;;16.23;0.98;;;9.10;99.90;;;;;;5020272;28;20021;-73
2023/01/11 09:10:36;;;;;;;28.20;2.13;;;9.10;99.90;;;;;;5012779;28;20030;-73
2023/01/11 09:13:02;;;;;;;14.30;1.77;;;9.10;99.90;;;;;;5013511;28;20405;-73
2023/01/11 09:15:28;;;;;;;18.95;1.30;;;9.10;99.90;;;;;;5014188;28;20064;-73
2023/01/11 09:17:53;;;;;;;14.90;1.10;;;9.10;99.90;;;;;;5024877;28;20132;-73
2023/01/11 09:20:20;;;;;;;13.90;1.08;;;9.10;99.90;;;;;;5027270;28;20022;-72
2023/01/11 09:22:46;;;;;;;15.43;1.35;;;9.00;99.90;;;;;;5030859;28;20178;-73
2023/01/11 09:25:12;;;;;;;16.67;1.67;;;9.00;99.90;;;;;;5023705;28;20132;-73
2023/01/11 09:27:41;;;;;;;15.90;1.52;;;9.00;99.90;;;;;;5026765;28;20462;-73
2023/01/11 09:30:07;;;;;;;23.20;2.10;;;8.90;99.90;;;;;;5018230;28;20025;-73
2023/01/11 09:32:33;;;;;;;15.25;1.20;;;8.90;99.90;;;;;;5028804;28;20037;-73
2023/01/11 09:34:59;;;;;;;20.63;1.98;;;8.90;99.90;;;;;;5026942;28;20034;-73
2023/01/11 09:37:25;;;;;;;21.30;1.40;;;8.90;99.90;;;;;;5025878;28;20022;-74
2023/01/11 09:39:51;;;;;;;19.88;1.60;;;8.80;99.90;;;;;;5012951;28;20458;-73
2023/01/11 09:42:34;;;;;;;28.33;1.70;;;8.80;99.90;;;;;;5004943;28;20076;-73
2023/01/11 09:45:06;;;;;;;15.23;1.17;;;8.80;99.90;;;;;;5025044;28;20022;-73
2023/01/11 09:47:35;;;;;;;15.30;1.45;;;8.80;99.90;;;;;;5020609;28;20048;-73
2023/01/11 09:50:05;;;;;;;19.08;2.08;;;8.80;99.90;;;;;;5023281;28;20076;-73
2023/01/11 09:52:39;;;;;;;17.75;1.55;;;8.80;99.90;;;;;;5021010;28;20037;-73
2023/01/11 09:55:14;;;;;;;20.80;1.92;;;8.80;99.90;;;;;;5026227;28;20491;-73
2023/01/11 09:57:55;;;;;;;10.20;0.98;;;8.90;99.90;;;;;;5030952;28;20493;-73
2023/01/11 10:00:36;;;;;;;21.00;1.42;;;8.90;99.90;;;;;;5013827;28;20412;-73
2023/01/11 10:03:09;;;;;;;15.00;1.25;;;9.00;99.90;;;;;;5019811;28;20121;-72
2023/01/11 10:05:54;;;;;;;18.48;1.33;;;9.10;99.90;;;;;;5023991;28;20033;-73
2023/01/11 10:08:38;;;;;;;12.68;1.48;;;9.20;99.90;;;;;;5018663;28;20021;-73
2023/01/11 10:11:48;;;;;;;18.67;1.67;;;9.30;99.90;;;;;;5031726;28;20104;-74
2023/01/11 10:14:34;;;;;;;21.90;1.48;;;9.40;99.90;;;;;;4992448;28;20458;-74
2023/01/11 10:17:05;;;;;;;10.65;1.45;;;9.50;99.90;;;;;;5024604;28;20037;-73
2023/01/11 10:19:44;;;;;;;8.75;0.82;;;9.60;99.90;;;;;;5027227;28;20092;-74
2023/01/11 10:22:19;;;;;;;17.02;0.98;;;9.70;99.90;;;;;;5019440;28;20493;-73
2023/01/11 10:24:55;;;;;;;11.02;1.63;;;9.70;99.90;;;;;;5024435;28;20025;-74
2023/01/11 10:27:33;;;;;;;11.65;1.45;;;9.80;99.90;;;;;;5029794;28;20140;-74
2023/01/11 10:30:27;;;;;;;11.57;0.98;;;9.80;99.90;;;;;;5029667;28;20026;-74
2023/01/11 10:33:17;;;;;;;20.67;1.50;;;9.90;99.90;;;;;;5018205;28;20030;-75
2023/01/11 10:38:49;;;;;;;20.80;1.42;;;10.00;99.90;;;;;;5018416;28;20037;-74
2023/01/11 10:41:53;;;;;;;13.13;1.60;;;10.00;99.90;;;;;;5016964;28;20084;-74
2023/01/11 10:44:36;;;;;;;16.30;1.02;;;10.10;99.90;;;;;;5020180;28;20024;-75
2023/01/11 10:47:04;;;;;;;13.65;1.13;;;10.00;99.90;;;;;;5018996;28;20029;-75
2023/01/11 10:49:38;;;;;;;11.90;0.98;;;10.10;99.90;;;;;;5018539;28;20505;-74
2023/01/11 10:52:17;;;;;;;14.80;1.00;;;10.10;99.90;;;;;;5013964;28;20029;-75
2023/01/11 10:54:45;;;;;;;17.83;1.05;;;10.10;99.90;;;;;;5005785;28;20021;-75
2023/01/11 10:57:19;;;;;;;17.40;1.00;;;10.10;99.90;;;;;;5019633;28;20362;-74
2023/01/11 11:00:18;;;;;;;19.67;1.17;;;10.10;99.90;;;;;;5026175;28;20025;-74
2023/01/11 11:02:55;;;;;;;18.15;1.38;;;10.10;99.90;;;;;;5024217;28;20477;-74
2023/01/11 11:05:32;;;;;;;11.43;0.90;;;10.20;99.90;;;;;;5006406;28;20049;-74
2023/01/11 11:08:34;;;;;;;19.48;1.25;;;10.20;99.90;;;;;;5024557;28;20698;-75
2023/01/11 11:11:07;;;;;;;10.50;1.30;;;10.20;99.90;;;;;;5027254;28;20108;-74
2023/01/11 11:13:51;;;;;;;9.77;0.88;;;10.20;99.90;;;;;;5026933;28;20025;-74
2023/01/11 11:16:32;;;;;;;13.60;1.27;;;10.20;99.90;;;;;;5011028;28;20045;-74
2023/01/11 11:18:58;;;;;;;14.80;1.10;;;10.30;99.90;;;;;;5020421;28;20028;-74
2023/01/11 11:21:36;;;;;;;18.30;1.27;;;10.30;99.90;;;;;;5025717;28;20034;-74
2023/01/11 11:24:15;;;;;;;17.23;1.38;;;10.30;99.90;;;;;;5027021;28;20037;-74
2023/01/11 11:26:45;;;;;;;17.90;1.60;;;10.30;99.90;;;;;;5028877;28;20033;-74
2023/01/11 11:29:20;;;;;;;13.80;1.30;;;10.40;99.90;;;;;;5006383;28;20042;-74
2023/01/11 11:31:46;;;;;;;17.48;1.75;;;10.40;99.90;;;;;;5014647;28;20073;-74
2023/01/11 11:34:15;;;;;;;12.52;1.42;;;10.40;99.90;;;;;;5028203;28;20025;-74
2023/01/11 11:36:45;;;;;;;15.50;1.73;;;10.50;99.90;;;;;;5023598;28;20048;-74
2023/01/11 11:39:18;;;;;;;12.60;1.35;;;10.50;99.90;;;;;;5013977;28;20036;-75
2023/01/11 11:41:47;;;;;;;17.55;1.10;;;10.50;99.90;;;;;;5024701;28;20022;-74
2023/01/11 11:44:23;;;;;;;21.10;1.42;;;10.50;99.90;;;;;;5030264;28;20022;-74
2023/01/11 11:47:00;;;;;;;10.85;1.10;;;10.40;99.90;;;;;;5020696;28;20029;-73
2023/01/11 11:49:28;;;;;;;14.95;1.35;;;10.40;99.90;;;;;;5023636;28;20127;-74
2023/01/11 11:51:54;;;;;;;20.25;1.80;;;10.30;99.90;;;;;;5021047;28;20022;-73
2023/01/11 11:54:24;;;;;;;21.33;1.52;;;10.30;99.90;;;;;;5021604;28;20109;-74
2023/01/11 11:56:51;;;;;;;17.35;1.52;;;10.30;99.90;;;;;;5024662;28;20083;-74
2023/01/11 11:59:19;;;;;;;11.63;0.93;;;10.30;99.90;;;;;;5024295;28;20049;-74
2023/01/11 12:01:48;;;;;;;12.95;1.00;;;10.40;99.90;;;;;;5024820;28;20038;-75
2023/01/11 12:04:21;;;;;;;12.98;1.00;;;10.40;99.90;;;;;;5029877;28;20013;-74
2023/01/11 12:07:11;;;;;;;12.77;1.33;;;10.50;99.90;;;;;;5025592;28;20033;-74
2023/01/11 12:09:41;;;;;;;16.58;1.10;;;10.60;99.90;;;;;;5017862;28;20171;-74
2023/01/11 12:12:18;;;;;;;8.85;1.30;;;10.60;99.90;;;;;;5035751;28;20033;-74
2023/01/11 12:15:18;;;;;;;17.50;1.67;;;10.70;99.90;;;;;;5017986;28;20025;-74
2023/01/11 12:17:44;;;;;;;13.60;1.13;;;10.70;99.90;;;;;;4998142;28;20037;-75
2023/01/11 12:20:21;;;;;;;14.57;1.10;;;10.70;99.90;;;;;;5033443;28;20025;-74
2023/01/11 12:23:18;;;;;;;13.80;1.02;;;10.70;99.90;;;;;;5032943;28;20033;-74
2023/01/11 12:26:04;;;;;;;19.23;1.27;;;10.70;99.90;;;;;;5033296;28;20489;-74
2023/01/11 12:28:44;;;;;;;16.70;1.20;;;10.60;99.90;;;;;;5033379;28;20083;-74
2023/01/11 12:31:41;;;;;;;19.38;1.42;;;10.60;99.90;;;;;;5028332;28;20018;-74
2023/01/11 12:34:31;;;;;;;16.88;2.15;;;10.70;99.90;;;;;;5013610;28;20029;-74
2023/01/11 12:37:19;;;;;;;15.20;1.27;;;10.70;99.90;;;;;;5027552;28;20037;-74
2023/01/11 12:40:06;;;;;;;14.60;1.30;;;10.70;99.90;;;;;;5028587;28;20385;-74
2023/01/11 12:43:10;;;;;;;17.45;1.35;;;10.60;99.90;;;;;;5028915;28;20028;-74
2023/01/11 12:45:48;;;;;;;9.10;0.95;;;10.60;99.90;;;;;;4976582;28;20093;-74
2023/01/11 12:48:42;;;;;;;16.83;1.40;;;10.70;99.90;;;;;;5033385;28;20065;-74
2023/01/11 12:51:46;;;;;;;13.20;1.10;;;10.70;99.90;;;;;;5022959;28;20038;-74
2023/01/11 12:54:17;;;;;;;17.85;1.25;;;10.70;99.90;;;;;;5026943;28;20064;-74
2023/01/11 12:57:15;;;;;;;13.57;1.05;;;10.70;99.90;;;;;;5032808;28;20088;-73
2023/01/11 12:59:54;;;;;;;12.48;0.98;;;10.70;99.90;;;;;;5026358;28;20026;-74
2023/01/11 13:02:40;;;;;;;15.80;1.50;;;10.60;99.90;;;;;;5027747;28;20055;-74
2023/01/11 13:05:34;;;;;;;15.02;0.95;;;10.60;99.90;;;;;;5024315;28;20033;-74
2023/01/11 13:08:14;;;;;;;11.32;1.13;;;10.60;99.90;;;;;;5039610;28;20025;-74
2023/01/11 13:11:05;;;;;;;14.95;1.23;;;10.50;99.90;;;;;;5023754;28;20096;-74
2023/01/11 13:13:52;;;;;;;15.18;1.25;;;10.60;99.90;;;;;;5026971;28;20029;-74
2023/01/11 13:16:29;;;;;;;11.32;1.10;;;10.60;99.90;;;;;;5031713;28;20547;-75
2023/01/11 13:19:22;;;;;;;13.68;1.20;;;10.60;99.90;;;;;;5021076;28;20040;-73
2023/01/11 13:21:52;;;;;;;14.40;1.20;;;10.60;99.90;;;;;;5016357;28;20117;-73
2023/01/11 13:24:28;;;;;;;16.45;1.30;;;10.60;99.90;;;;;;5032065;28;20021;-74
2023/01/11 13:26:59;;;;;;;17.45;1.92;;;10.60;99.90;;;;;;5026337;28;20111;-73
2023/01/11 13:29:33;;;;;;;13.82;2.25;;;10.60;99.90;;;;;;5002480;28;20030;-73
2023/01/11 13:32:04;;;;;;;13.73;1.38;;;10.50;99.90;;;;;;5026366;28;20108;-73
2023/01/11 13:34:38;;;;;;;11.43;1.17;;;10.50;99.90;;;;;;5032062;28;20021;-73